createdAt,value
2019-05-17T00:01:52.050Z,20.43
2019-05-17T00:04:22.071Z,19.07
2019-05-17T00:06:52.438Z,24.12
2019-05-17T00:09:22.457Z,21.30
2019-05-17T00:11:52.447Z,21.67
2019-05-17T00:14:22.498Z,23.33
2019-05-17T00:16:52.827Z,23.55
2019-05-17T00:19:23.036Z,25.62
2019-05-17T00:21:52.990Z,16.87
2019-05-17T00:24:22.975Z,19.87
2019-05-17T00:26:53.086Z,22.53
2019-05-17T00:29:23.422Z,24.67
2019-05-17T00:31:53.441Z,28.17
2019-05-17T00:34:23.427Z,23.43
2019-05-17T00:36:53.514Z,20.40
2019-05-17T00:39:23.860Z,23.62
2019-05-17T00:41:53.878Z,19.07
2019-05-17T00:44:23.898Z,29.30
2019-05-17T00:46:54.222Z,23.35
2019-05-17T00:49:26.328Z,21.30
2019-05-17T00:51:56.768Z,26.83
2019-05-17T00:54:27.057Z,26.27
2019-05-17T00:56:57.070Z,29.43
2019-05-17T00:59:27.059Z,28.53
2019-05-17T01:01:57.082Z,22.40
2019-05-17T01:04:27.621Z,26.00
2019-05-17T01:06:57.938Z,22.73
2019-05-17T01:09:28.334Z,24.85
2019-05-17T01:11:58.439Z,24.87
2019-05-17T01:14:28.536Z,28.37
2019-05-17T01:16:58.536Z,31.63
2019-05-17T01:19:28.800Z,25.27
2019-05-17T01:21:59.351Z,21.07
2019-05-17T01:24:29.367Z,23.07
2019-05-17T01:26:59.209Z,27.27
2019-05-17T01:29:29.462Z,29.42
2019-05-17T01:31:59.772Z,32.83
2019-05-17T01:34:29.870Z,23.73
2019-05-17T01:37:00.083Z,25.02
2019-05-17T01:39:33.392Z,27.30
2019-05-17T01:42:02.606Z,27.20
2019-05-17T01:44:32.855Z,25.23
2019-05-17T01:47:03.144Z,29.05
2019-05-17T01:49:33.530Z,27.77
2019-05-17T01:52:03.864Z,25.52
2019-05-17T01:54:36.145Z,30.23
2019-05-17T01:57:07.303Z,27.20
2019-05-17T01:59:37.669Z,31.45
2019-05-17T02:02:13.571Z,24.55
2019-05-17T02:04:43.858Z,28.60
2019-05-17T02:07:14.180Z,31.33
2019-05-17T02:09:44.162Z,27.57
2019-05-17T02:12:14.491Z,24.92
2019-05-17T02:14:46.775Z,31.27
2019-05-17T02:17:17.398Z,35.33
2019-05-17T02:19:47.789Z,27.57
2019-05-17T02:22:18.116Z,24.12
2019-05-17T02:24:48.326Z,33.70
2019-05-17T02:27:21.419Z,29.90
2019-05-17T02:29:51.978Z,27.90
2019-05-17T02:32:23.636Z,36.73
2019-05-17T02:34:53.676Z,34.07
2019-05-17T02:37:24.022Z,29.32
2019-05-17T02:40:03.197Z,30.80
2019-05-17T02:42:25.982Z,29.40
2019-05-17T02:44:56.001Z,22.57
2019-05-17T02:47:26.286Z,27.17
2019-05-17T02:49:56.539Z,33.08
2019-05-17T02:52:26.827Z,30.52
2019-05-17T02:54:57.156Z,26.93
2019-05-17T02:57:27.452Z,24.82
2019-05-17T02:59:57.775Z,25.80
2019-05-17T03:02:28.323Z,28.02
2019-05-17T03:04:58.868Z,28.15
2019-05-17T03:07:32.622Z,29.30
2019-05-17T03:10:13.589Z,22.42
2019-05-17T03:12:34.221Z,27.85
2019-05-17T03:15:05.048Z,26.62
2019-05-17T03:17:35.338Z,26.45
2019-05-17T03:20:12.502Z,32.08
2019-05-17T03:22:44.106Z,32.78
2019-05-17T03:25:14.435Z,23.52
2019-05-17T03:27:44.946Z,31.15
2019-05-17T03:30:18.286Z,26.10
2019-05-17T03:32:49.071Z,28.42
2019-05-17T03:35:19.455Z,26.55
2019-05-17T03:37:52.884Z,29.63
2019-05-17T03:40:36.349Z,26.27
2019-05-17T03:42:54.031Z,27.90
2019-05-17T03:45:24.484Z,34.60
2019-05-17T03:47:54.572Z,38.30
2019-05-17T03:50:24.903Z,26.12
2019-05-17T03:52:55.186Z,26.05
2019-05-17T03:55:25.516Z,28.77
2019-05-17T03:57:55.809Z,33.92
2019-05-17T04:00:26.133Z,29.50
2019-05-17T04:02:56.416Z,29.52
2019-05-17T04:05:26.736Z,33.67
2019-05-17T04:07:57.035Z,32.50
2019-05-17T04:10:27.350Z,34.40
2019-05-17T04:12:57.638Z,34.27
2019-05-17T04:15:27.593Z,39.63
2019-05-17T04:17:57.994Z,32.93
2019-05-17T04:20:28.316Z,33.30
2019-05-17T04:23:03.750Z,45.98
2019-05-17T04:25:33.411Z,38.92
2019-05-17T04:28:04.393Z,26.60
2019-05-17T04:30:34.422Z,38.40
2019-05-17T04:33:04.827Z,36.47
2019-05-17T04:35:35.189Z,29.57
2019-05-17T04:38:05.510Z,34.80
2019-05-17T04:40:35.530Z,25.50
2019-05-17T04:43:05.815Z,33.63
2019-05-17T04:45:35.838Z,26.53
2019-05-17T04:48:05.893Z,36.80
2019-05-17T04:50:36.268Z,30.25
2019-05-17T04:53:06.556Z,30.50
2019-05-17T04:55:36.578Z,27.13
2019-05-17T04:58:06.572Z,33.77
2019-05-17T05:00:36.579Z,29.47
2019-05-17T05:03:07.842Z,23.87
2019-05-17T05:05:37.863Z,25.47
2019-05-17T05:08:07.951Z,23.07
2019-05-17T05:10:38.772Z,26.23
2019-05-17T05:13:09.252Z,25.57
2019-05-17T05:15:44.160Z,27.90
2019-05-17T05:18:14.066Z,33.75
2019-05-17T05:20:44.402Z,29.00
2019-05-17T05:23:14.434Z,26.97
2019-05-17T05:25:44.371Z,35.13
2019-05-17T05:28:14.383Z,30.40
2019-05-17T05:30:45.085Z,30.43
2019-05-17T05:33:15.029Z,27.00
2019-05-17T05:35:45.018Z,33.63
2019-05-17T05:38:15.043Z,33.83
2019-05-17T05:40:44.953Z,30.60
2019-05-17T05:43:15.584Z,30.33
2019-05-17T05:45:46.935Z,35.70
2019-05-17T05:48:16.958Z,35.43
2019-05-17T05:50:46.943Z,37.13
2019-05-17T05:53:16.971Z,26.97
2019-05-17T05:55:47.089Z,28.03
2019-05-17T05:58:17.146Z,35.50
2019-05-17T06:00:47.150Z,33.57
2019-05-17T06:03:17.140Z,30.50
2019-05-17T06:05:47.196Z,32.13
2019-05-17T06:08:17.244Z,33.20
2019-05-17T06:10:47.234Z,32.13
2019-05-17T06:13:17.261Z,35.80
2019-05-17T06:15:47.255Z,31.13
2019-05-17T06:18:17.287Z,36.33
2019-05-17T06:20:47.275Z,35.30
2019-05-17T06:23:19.598Z,36.33
2019-05-17T06:25:52.034Z,27.73
2019-05-17T06:28:22.295Z,31.20
2019-05-17T06:30:52.675Z,34.13
2019-05-17T06:33:30.544Z,33.50
2019-05-17T06:35:54.419Z,30.30
2019-05-17T06:38:24.411Z,29.60
2019-05-17T06:40:54.541Z,24.83
2019-05-17T06:43:24.531Z,28.33
2019-05-17T06:45:54.492Z,27.57
2019-05-17T06:48:32.491Z,25.97
2019-05-17T06:51:03.932Z,25.50
2019-05-17T06:53:34.887Z,22.37
2019-05-17T06:56:04.917Z,27.23
2019-05-17T06:58:34.831Z,29.23
2019-05-17T07:01:04.856Z,28.40
2019-05-17T07:03:34.847Z,27.17
2019-05-17T07:06:06.614Z,27.07
2019-05-17T07:08:40.097Z,22.13
2019-05-17T07:11:09.878Z,26.97
2019-05-17T07:13:40.027Z,21.80
2019-05-17T07:16:10.338Z,23.30
2019-05-17T07:18:40.530Z,23.63
2019-05-17T07:21:10.554Z,20.50
2019-05-17T07:23:41.253Z,19.37
2019-05-17T07:26:12.039Z,18.60
2019-05-17T07:28:42.310Z,18.33
2019-05-17T07:31:12.372Z,20.87
2019-05-17T07:33:42.424Z,15.70
2019-05-17T07:36:12.298Z,18.23
2019-05-17T07:38:42.321Z,16.17
2019-05-17T07:41:12.350Z,17.60
2019-05-17T07:43:42.356Z,18.07
2019-05-17T07:46:12.312Z,14.70
2019-05-17T07:48:42.300Z,17.50
2019-05-17T07:51:12.327Z,13.50
2019-05-17T07:53:42.246Z,15.27
2019-05-17T07:56:12.344Z,13.10
2019-05-17T07:58:42.410Z,13.57
2019-05-17T08:01:12.427Z,12.17
2019-05-17T08:03:43.383Z,15.10
2019-05-17T08:06:13.413Z,15.40
2019-05-17T08:08:43.499Z,13.63
2019-05-17T08:11:21.194Z,12.10
2019-05-17T08:13:53.078Z,12.60
2019-05-17T08:16:22.990Z,12.93
2019-05-17T08:18:53.094Z,16.77
2019-05-17T08:21:23.082Z,11.07
2019-05-17T08:23:53.104Z,12.63
2019-05-17T08:26:24.354Z,9.43
2019-05-17T08:28:54.299Z,11.80
2019-05-17T08:31:24.279Z,11.93
2019-05-17T08:34:03.897Z,9.93
2019-05-17T08:36:33.889Z,10.07
2019-05-17T08:39:06.110Z,12.97
2019-05-17T08:41:36.218Z,11.37
2019-05-17T08:44:06.270Z,9.60
2019-05-17T08:46:36.431Z,10.57
2019-05-17T08:49:06.432Z,11.37
2019-05-17T08:51:36.449Z,9.53
2019-05-17T08:54:06.498Z,10.80
2019-05-17T08:56:36.516Z,10.70
2019-05-17T08:59:06.550Z,10.10
2019-05-17T09:01:38.455Z,10.63
2019-05-17T09:04:09.275Z,10.10
2019-05-17T09:06:39.814Z,8.60
2019-05-17T09:09:10.265Z,11.20
2019-05-17T09:11:40.275Z,8.90
2019-05-17T09:14:10.629Z,11.60
2019-05-17T09:16:41.557Z,10.00
2019-05-17T09:19:11.716Z,10.33
2019-05-17T09:21:42.028Z,11.10
2019-05-17T09:24:12.450Z,9.17
2019-05-17T09:26:42.502Z,11.23
2019-05-17T09:29:13.392Z,8.90
2019-05-17T09:31:43.405Z,9.70
2019-05-17T09:34:13.450Z,8.10
2019-05-17T09:36:44.303Z,10.13
2019-05-17T09:39:14.378Z,8.43
2019-05-17T09:41:44.457Z,8.67
2019-05-17T09:44:16.316Z,7.57
2019-05-17T09:46:46.851Z,9.03
2019-05-17T09:49:19.176Z,9.33
2019-05-17T09:51:49.671Z,9.37
2019-05-17T09:54:19.862Z,8.47
2019-05-17T09:56:49.844Z,7.50
2019-05-17T09:59:20.362Z,9.57
2019-05-17T10:01:51.648Z,9.40
2019-05-17T10:04:21.953Z,8.57
2019-05-17T10:06:52.554Z,6.50
2019-05-17T10:09:24.896Z,8.10
2019-05-17T10:11:55.015Z,7.70
2019-05-17T10:14:29.176Z,8.03
2019-05-17T10:17:00.348Z,7.50
2019-05-17T10:19:31.259Z,6.50
2019-05-17T10:22:12.741Z,7.87
2019-05-17T10:24:43.702Z,6.73
2019-05-17T10:27:14.821Z,6.57
2019-05-17T10:29:45.723Z,5.80
2019-05-17T10:32:20.309Z,7.37
2019-05-17T10:34:51.383Z,5.83
2019-05-17T10:37:23.668Z,6.40
2019-05-17T10:39:55.936Z,6.30
2019-05-17T10:42:26.108Z,6.00
2019-05-17T10:44:56.086Z,5.13
2019-05-17T10:47:26.094Z,4.03
2019-05-17T10:49:56.083Z,5.07
2019-05-17T10:52:26.095Z,7.40
2019-05-17T10:54:56.072Z,7.83
2019-05-17T10:57:26.099Z,4.73
2019-05-17T10:59:56.069Z,5.30
2019-05-17T11:02:26.154Z,3.50
2019-05-17T11:04:56.099Z,3.57
2019-05-17T11:07:26.340Z,3.53
2019-05-17T11:09:56.419Z,3.47
2019-05-17T11:12:26.317Z,4.00
2019-05-17T11:15:10.350Z,3.70
2019-05-17T11:17:28.506Z,3.77
2019-05-17T11:19:58.540Z,3.53
2019-05-17T11:22:28.775Z,3.70
2019-05-17T11:24:59.034Z,3.20
2019-05-17T11:27:29.143Z,3.70
2019-05-17T11:29:59.155Z,3.97
2019-05-17T11:32:28.984Z,3.40
2019-05-17T11:34:58.948Z,4.60
2019-05-17T11:37:28.908Z,5.23
2019-05-17T11:39:58.922Z,4.47
2019-05-17T11:42:29.000Z,3.60
2019-05-17T11:44:58.977Z,3.17
2019-05-17T11:47:29.080Z,3.10
2019-05-17T11:49:59.190Z,5.73
2019-05-17T11:52:29.198Z,3.17
2019-05-17T11:54:59.196Z,4.77
2019-05-17T11:57:29.205Z,3.50
2019-05-17T11:59:59.656Z,5.87
2019-05-17T12:02:34.472Z,3.07
2019-05-17T12:05:05.974Z,6.83
2019-05-17T12:07:36.013Z,2.77
2019-05-17T12:10:08.029Z,2.87
2019-05-17T12:12:38.038Z,3.10
2019-05-17T12:15:08.018Z,3.37
2019-05-17T12:17:39.463Z,5.03
2019-05-17T12:20:12.996Z,2.47
2019-05-17T12:22:43.499Z,3.20
2019-05-17T12:25:14.565Z,3.20
2019-05-17T12:27:44.569Z,3.57
2019-05-17T12:30:15.041Z,3.70
2019-05-17T12:32:45.074Z,8.03
2019-05-17T12:35:15.047Z,2.80
2019-05-17T12:37:44.992Z,2.60
2019-05-17T12:40:15.123Z,5.97
2019-05-17T12:42:45.229Z,2.43
2019-05-17T12:45:15.241Z,3.60
2019-05-17T12:47:45.150Z,3.67
2019-05-17T12:50:15.654Z,2.23
2019-05-17T12:52:45.627Z,2.33
2019-05-17T12:55:15.822Z,7.13
2019-05-17T12:57:46.587Z,4.27
2019-05-17T13:00:17.751Z,4.20
2019-05-17T13:02:47.767Z,6.47
2019-05-17T13:05:17.736Z,4.10
2019-05-17T13:07:47.826Z,9.20
2019-05-17T13:10:18.607Z,5.13
2019-05-17T13:12:48.689Z,9.20
2019-05-17T13:15:19.139Z,3.67
2019-05-17T13:17:49.145Z,3.77
2019-05-17T13:20:21.569Z,5.23
2019-05-17T13:22:51.592Z,5.70
2019-05-17T13:25:21.663Z,2.90
2019-05-17T13:27:51.750Z,11.90
2019-05-17T13:30:21.832Z,3.20
2019-05-17T13:32:54.777Z,4.57
2019-05-17T13:35:24.860Z,4.13
2019-05-17T13:37:54.936Z,2.90
2019-05-17T13:40:25.042Z,3.00
2019-05-17T13:42:55.138Z,2.47
2019-05-17T13:45:25.194Z,2.80
2019-05-17T13:47:55.275Z,3.57
2019-05-17T13:50:27.240Z,5.23
2019-05-17T13:52:57.442Z,5.27
2019-05-17T13:55:30.266Z,3.20
2019-05-17T13:58:00.726Z,3.17
2019-05-17T14:00:31.349Z,4.87
2019-05-17T14:03:01.662Z,2.53
2019-05-17T14:05:33.986Z,2.77
2019-05-17T14:08:04.931Z,2.63
2019-05-17T14:10:34.985Z,3.00
2019-05-17T14:13:05.270Z,3.87
2019-05-17T14:15:35.322Z,2.87
2019-05-17T14:18:05.486Z,5.10
2019-05-17T14:20:35.949Z,4.07
2019-05-17T14:23:05.921Z,3.97
2019-05-17T14:25:35.972Z,4.53
2019-05-17T14:31:04.208Z,2.93
2019-05-17T14:33:35.669Z,3.90
2019-05-17T14:36:06.275Z,4.63
2019-05-17T14:38:36.645Z,1.90
2019-05-17T14:41:09.219Z,3.17
2019-05-17T14:43:39.634Z,3.13
2019-05-17T14:46:09.927Z,2.40
2019-05-17T14:48:41.112Z,2.50
2019-05-17T14:51:13.125Z,4.17
2019-05-17T14:53:43.921Z,2.47
2019-05-17T14:56:16.762Z,2.23
2019-05-17T14:58:47.106Z,2.40
2019-05-17T15:01:18.948Z,1.77
2019-05-17T15:03:48.982Z,4.10
2019-05-17T15:06:20.630Z,3.80
2019-05-17T15:08:51.690Z,3.53
2019-05-17T15:11:21.770Z,2.57
2019-05-17T15:13:51.805Z,3.53
2019-05-17T15:16:21.893Z,2.50
2019-05-17T15:18:52.341Z,2.10
2019-05-17T15:21:23.252Z,3.57
2019-05-17T15:23:53.709Z,2.93
2019-05-17T15:26:23.899Z,2.03
2019-05-17T15:28:54.217Z,3.37
2019-05-17T15:31:25.764Z,3.80
2019-05-17T15:33:56.622Z,2.07
2019-05-17T15:36:26.721Z,3.73
2019-05-17T15:38:57.521Z,2.10
2019-05-17T15:41:27.647Z,2.37
2019-05-17T15:43:58.211Z,3.37
2019-05-17T15:46:29.381Z,3.43
2019-05-17T15:49:01.487Z,2.60
2019-05-17T15:51:32.004Z,5.47
2019-05-17T15:54:02.015Z,5.23
2019-05-17T15:56:32.012Z,3.03
2019-05-17T15:59:03.455Z,2.93
2019-05-17T16:01:33.582Z,4.60
2019-05-17T16:04:03.536Z,5.27
2019-05-17T16:06:33.741Z,3.90
2019-05-17T16:09:06.350Z,1.93
2019-05-17T16:11:36.845Z,2.63
2019-05-17T16:14:07.537Z,3.27
2019-05-17T16:16:38.837Z,2.03
2019-05-17T16:19:09.001Z,2.67
2019-05-17T16:21:40.080Z,2.70
2019-05-17T16:24:11.592Z,1.67
2019-05-17T16:26:42.091Z,2.30
2019-05-17T16:29:16.509Z,1.53
2019-05-17T16:31:46.893Z,2.37
2019-05-17T16:34:16.926Z,1.50
2019-05-17T16:36:46.940Z,4.00
2019-05-17T16:39:16.853Z,3.07
2019-05-17T16:41:46.961Z,1.57
2019-05-17T16:44:16.977Z,1.80
2019-05-17T16:46:46.993Z,1.17
2019-05-17T16:49:16.968Z,1.17
2019-05-17T16:51:47.039Z,2.43
2019-05-17T16:54:17.010Z,1.63
2019-05-17T16:56:47.117Z,1.97
2019-05-17T16:59:17.255Z,1.77
2019-05-17T17:01:47.394Z,2.20
2019-05-17T17:04:17.461Z,1.93
2019-05-17T17:06:47.432Z,3.43
2019-05-17T17:09:17.508Z,2.30
2019-05-17T17:11:47.515Z,1.63
2019-05-17T17:14:18.170Z,1.90
2019-05-17T17:16:48.362Z,2.07
2019-05-17T17:19:18.402Z,1.30
2019-05-17T17:21:48.401Z,1.63
2019-05-17T17:24:18.510Z,2.43
2019-05-17T17:26:48.518Z,3.10
2019-05-17T17:29:18.553Z,4.67
2019-05-17T17:31:48.636Z,2.23
2019-05-17T17:34:18.598Z,1.73
2019-05-17T17:36:48.667Z,1.70
2019-05-17T17:39:18.569Z,2.63
2019-05-17T17:41:48.692Z,2.60
2019-05-17T17:44:18.700Z,4.13
2019-05-17T17:46:48.625Z,1.93
2019-05-17T17:49:18.674Z,2.67
2019-05-17T17:51:48.685Z,2.83
2019-05-17T17:54:18.675Z,2.60
2019-05-17T17:56:48.641Z,1.50
2019-05-17T17:59:19.413Z,1.70
2019-05-17T18:01:49.359Z,1.87
2019-05-17T18:04:19.969Z,2.27
2019-05-17T18:06:49.932Z,2.03
2019-05-17T18:09:19.962Z,2.37
2019-05-17T18:11:49.937Z,2.80
2019-05-17T18:14:19.934Z,2.10
2019-05-17T18:16:49.903Z,2.07
2019-05-17T18:19:19.918Z,3.03
2019-05-17T18:21:49.891Z,2.90
2019-05-17T18:24:19.908Z,2.27
2019-05-17T18:26:49.898Z,1.90
2019-05-17T18:29:19.800Z,2.30
2019-05-17T18:31:49.807Z,2.13
2019-05-17T18:34:19.737Z,2.67
2019-05-17T18:36:49.710Z,2.10
2019-05-17T18:39:19.715Z,2.50
2019-05-17T18:41:49.757Z,1.73
2019-05-17T18:44:27.181Z,2.27
2019-05-17T18:46:51.454Z,2.63
2019-05-17T18:49:21.389Z,3.27
2019-05-17T18:51:51.368Z,8.80
2019-05-17T18:54:21.669Z,2.17
2019-05-17T18:56:51.673Z,2.47
2019-05-17T18:59:21.699Z,3.23
2019-05-17T19:01:51.707Z,4.50
2019-05-17T19:04:21.603Z,2.67
2019-05-17T19:06:51.677Z,2.13
2019-05-17T19:09:21.678Z,4.63
2019-05-17T19:11:51.686Z,1.40
2019-05-17T19:14:21.519Z,3.30
2019-05-17T19:16:51.522Z,2.20
2019-05-17T19:19:21.494Z,4.03
2019-05-17T19:21:51.525Z,2.17
2019-05-17T19:24:21.494Z,3.70
2019-05-17T19:26:51.509Z,2.17
2019-05-17T19:29:21.538Z,3.80
2019-05-17T19:31:51.513Z,2.87
2019-05-17T19:34:21.531Z,3.30
2019-05-17T19:36:51.539Z,4.33
2019-05-17T19:39:21.628Z,3.07
2019-05-17T19:41:51.629Z,5.57
2019-05-17T19:44:21.706Z,6.93
2019-05-17T19:46:51.812Z,3.07
2019-05-17T19:49:21.865Z,3.23
2019-05-17T19:51:51.866Z,2.67
2019-05-17T19:54:21.842Z,5.30
2019-05-17T19:56:51.926Z,5.47
2019-05-17T19:59:21.972Z,3.83
2019-05-17T20:01:52.045Z,3.10
2019-05-17T20:04:22.087Z,3.40
2019-05-17T20:06:52.198Z,2.90
2019-05-17T20:09:22.176Z,2.90
2019-05-17T20:11:52.190Z,3.73
2019-05-17T20:14:22.169Z,3.60
2019-05-17T20:16:52.219Z,2.63
2019-05-17T20:19:22.215Z,5.87
2019-05-17T20:21:52.302Z,6.17
2019-05-17T20:24:22.279Z,4.93
2019-05-17T20:26:52.293Z,3.30
2019-05-17T20:29:22.354Z,3.13
2019-05-17T20:31:52.386Z,3.37
2019-05-17T20:34:22.501Z,2.43
2019-05-17T20:36:52.609Z,4.27
2019-05-17T20:39:22.654Z,5.07
2019-05-17T20:41:52.659Z,4.43
2019-05-17T20:44:22.599Z,4.03
2019-05-17T20:46:52.610Z,3.40
2019-05-17T20:49:22.702Z,3.87
2019-05-17T20:51:52.602Z,6.37
2019-05-17T20:54:22.549Z,5.30
2019-05-17T20:56:52.593Z,7.07
2019-05-17T20:59:22.566Z,4.47
2019-05-17T21:01:52.607Z,5.63
2019-05-17T21:04:22.537Z,5.10
2019-05-17T21:06:52.561Z,4.37
2019-05-17T21:09:22.618Z,5.37
2019-05-17T21:11:52.628Z,4.30
2019-05-17T21:14:22.606Z,5.80
2019-05-17T21:16:52.605Z,3.80
2019-05-17T21:19:22.577Z,3.20
2019-05-17T21:21:53.854Z,6.20
2019-05-17T21:24:23.831Z,3.47
2019-05-17T21:26:53.769Z,3.63
2019-05-17T21:29:23.813Z,5.30
2019-05-17T21:31:53.818Z,3.63
2019-05-17T21:34:23.794Z,3.77
2019-05-17T21:36:53.808Z,4.73
2019-05-17T21:39:23.777Z,3.93
2019-05-17T21:41:53.794Z,2.97
2019-05-17T21:44:23.776Z,3.70
2019-05-17T21:47:04.451Z,3.27
2019-05-17T21:49:25.439Z,6.03
2019-05-17T21:51:55.447Z,8.50
2019-05-17T21:54:25.415Z,4.30
2019-05-17T21:56:55.417Z,7.97
2019-05-17T21:59:25.390Z,6.13
2019-05-17T22:01:55.781Z,4.17
2019-05-17T22:04:27.057Z,5.43
2019-05-17T22:06:57.385Z,6.30
2019-05-17T22:09:27.416Z,6.10
2019-05-17T22:12:02.776Z,4.10
2019-05-17T22:14:34.041Z,5.00
2019-05-17T22:17:04.073Z,4.97
2019-05-17T22:19:33.957Z,6.97
2019-05-17T22:22:03.973Z,6.03
2019-05-17T22:24:33.945Z,4.93
2019-05-17T22:27:04.025Z,6.73
2019-05-17T22:29:33.997Z,6.30
2019-05-17T22:32:04.025Z,8.10
2019-05-17T22:34:33.989Z,6.13
2019-05-17T22:37:04.065Z,4.53
2019-05-17T22:39:33.967Z,5.77
2019-05-17T22:42:04.046Z,5.03
2019-05-17T22:44:34.021Z,5.63
2019-05-17T22:47:04.205Z,7.70
2019-05-17T22:49:34.175Z,5.07
2019-05-17T22:52:04.189Z,5.33
2019-05-17T22:54:34.161Z,8.17
2019-05-17T22:57:04.207Z,5.60
2019-05-17T22:59:34.106Z,5.87
2019-05-17T23:02:04.134Z,7.07
2019-05-17T23:04:34.091Z,5.63
2019-05-17T23:07:04.102Z,4.87
2019-05-17T23:09:34.073Z,4.83
2019-05-17T23:12:04.083Z,9.53
2019-05-17T23:14:34.053Z,6.80
2019-05-17T23:17:04.058Z,6.97
2019-05-17T23:19:34.031Z,6.30
2019-05-17T23:22:03.976Z,6.37
2019-05-17T23:24:33.949Z,7.03
2019-05-17T23:27:03.993Z,5.67
2019-05-17T23:29:33.998Z,5.87
2019-05-17T23:32:04.052Z,5.50
2019-05-17T23:34:33.985Z,5.63
2019-05-17T23:37:03.957Z,6.53
2019-05-17T23:39:33.965Z,6.57
2019-05-17T23:42:04.005Z,5.40
2019-05-17T23:44:33.862Z,6.67
2019-05-17T23:47:07.198Z,4.43
2019-05-17T23:49:35.466Z,7.90
2019-05-17T23:52:05.468Z,5.60
2019-05-17T23:54:35.482Z,5.37
2019-05-17T23:57:05.513Z,5.67
2019-05-17T23:59:35.551Z,7.10
